sensor_id;sensor_type;location;lat;lon;timestamp;pressure;altitude;pressure_sealevel;temperature;humidity
57462;BME280;43308;47.306;8.608;2024-02-23T00:00:29;93696.03;;;5.74;73.13
57462;BME280;43308;47.306;8.608;2024-02-23T00:02:55;93702.09;;;5.75;73.58
57462;BME280;43308;47.306;8.608;2024-02-23T00:05:24;93687.31;;;5.74;73.91
57462;BME280;43308;47.306;8.608;2024-02-23T00:07:50;93687.31;;;5.74;72.88
57462;BME280;43308;47.306;8.608;2024-02-23T00:10:16;93670.50;;;5.78;72.86
57462;BME280;43308;47.306;8.608;2024-02-23T00:12:42;93673.75;;;5.75;73.81
57462;BME280;43308;47.306;8.608;2024-02-23T00:15:10;93676.41;;;5.75;73.57
57462;BME280;43308;47.306;8.608;2024-02-23T00:17:36;93674.22;;;5.77;73.30
57462;BME280;43308;47.306;8.608;2024-02-23T00:20:04;93664.13;;;5.79;73.75
57462;BME280;43308;47.306;8.608;2024-02-23T00:22:32;93661.00;;;5.77;71.95
57462;BME280;43308;47.306;8.608;2024-02-23T00:24:59;93680.81;;;5.80;72.50
57462;BME280;43308;47.306;8.608;2024-02-23T00:27:25;93665.84;;;5.84;73.72
57462;BME280;43308;47.306;8.608;2024-02-23T00:29:51;93665.84;;;5.84;72.68
57462;BME280;43308;47.306;8.608;2024-02-23T00:32:18;93673.53;;;5.85;73.17
57462;BME280;43308;47.306;8.608;2024-02-23T00:34:44;93672.13;;;5.88;72.86
57462;BME280;43308;47.306;8.608;2024-02-23T00:37:10;93674.00;;;5.87;73.59
57462;BME280;43308;47.306;8.608;2024-02-23T00:39:36;93662.00;;;5.90;72.38
57462;BME280;43308;47.306;8.608;2024-02-23T00:42:03;93668.88;;;5.91;72.86
57462;BME280;43308;47.306;8.608;2024-02-23T00:44:29;93656.09;;;5.93;72.64
57462;BME280;43308;47.306;8.608;2024-02-23T00:46:55;93666.69;;;5.93;73.09
57462;BME280;43308;47.306;8.608;2024-02-23T00:49:24;93687.56;;;5.95;71.55
57462;BME280;43308;47.306;8.608;2024-02-23T00:51:50;93685.41;;;5.97;71.35
57462;BME280;43308;47.306;8.608;2024-02-23T00:54:16;93687.44;;;6.00;70.60
57462;BME280;43308;47.306;8.608;2024-02-23T00:56:42;93693.38;;;6.05;70.54
57462;BME280;43308;47.306;8.608;2024-02-23T00:59:08;93696.03;;;6.05;70.07
57462;BME280;43308;47.306;8.608;2024-02-23T01:01:34;93695.09;;;6.10;70.18
57462;BME280;43308;47.306;8.608;2024-02-23T01:04:00;93684.22;;;6.11;69.19
57462;BME280;43308;47.306;8.608;2024-02-23T01:06:27;93692.97;;;6.20;68.17
57462;BME280;43308;47.306;8.608;2024-02-23T01:08:54;93675.81;;;6.26;66.11
57462;BME280;43308;47.306;8.608;2024-02-23T01:11:20;93687.84;;;6.32;66.59
57462;BME280;43308;47.306;8.608;2024-02-23T01:13:46;93677.25;;;6.32;64.84
57462;BME280;43308;47.306;8.608;2024-02-23T01:16:13;93673.84;;;6.40;65.57
57462;BME280;43308;47.306;8.608;2024-02-23T01:18:39;93675.88;;;6.44;66.69
57462;BME280;43308;47.306;8.608;2024-02-23T01:21:05;93715.31;;;6.45;65.02
57462;BME280;43308;47.306;8.608;2024-02-23T01:23:32;93699.13;;;6.47;64.73
57462;BME280;43308;47.306;8.608;2024-02-23T01:25:58;93692.25;;;6.46;65.34
57462;BME280;43308;47.306;8.608;2024-02-23T01:28:25;93687.72;;;6.46;64.72
57462;BME280;43308;47.306;8.608;2024-02-23T01:30:51;93701.59;;;6.52;64.28
57462;BME280;43308;47.306;8.608;2024-02-23T01:33:17;93697.22;;;6.47;63.21
57462;BME280;43308;47.306;8.608;2024-02-23T01:35:43;93703.00;;;6.49;65.10
57462;BME280;43308;47.306;8.608;2024-02-23T01:38:09;93709.72;;;6.47;65.39
57462;BME280;43308;47.306;8.608;2024-02-23T01:40:35;93698.94;;;6.43;65.49
57462;BME280;43308;47.306;8.608;2024-02-23T01:43:04;93702.22;;;6.40;64.99
57462;BME280;43308;47.306;8.608;2024-02-23T01:45:31;93703.59;;;6.37;65.01
57462;BME280;43308;47.306;8.608;2024-02-23T01:47:58;93744.13;;;6.38;64.43
57462;BME280;43308;47.306;8.608;2024-02-23T01:50:25;93718.13;;;6.40;65.14
57462;BME280;43308;47.306;8.608;2024-02-23T01:52:53;93711.88;;;6.36;63.72
57462;BME280;43308;47.306;8.608;2024-02-23T01:55:20;93726.50;;;6.33;64.36
57462;BME280;43308;47.306;8.608;2024-02-23T01:57:47;93717.31;;;6.31;65.11
57462;BME280;43308;47.306;8.608;2024-02-23T02:00:17;93737.56;;;6.27;65.29
57462;BME280;43308;47.306;8.608;2024-02-23T02:02:51;93713.09;;;6.21;65.24
57462;BME280;43308;47.306;8.608;2024-02-23T02:05:18;93711.97;;;6.22;65.77
57462;BME280;43308;47.306;8.608;2024-02-23T02:07:45;93707.13;;;6.16;66.05
57462;BME280;43308;47.306;8.608;2024-02-23T02:10:13;93717.25;;;6.14;66.76
57462;BME280;43308;47.306;8.608;2024-02-23T02:12:39;93711.00;;;6.10;66.40
57462;BME280;43308;47.306;8.608;2024-02-23T02:15:05;93691.81;;;6.04;66.10
57462;BME280;43308;47.306;8.608;2024-02-23T02:17:31;93689.78;;;6.01;67.00
57462;BME280;43308;47.306;8.608;2024-02-23T02:19:58;93694.63;;;5.99;68.29
57462;BME280;43308;47.306;8.608;2024-02-23T02:22:24;93683.53;;;5.97;67.92
57462;BME280;43308;47.306;8.608;2024-02-23T02:24:50;93670.13;;;5.94;68.21
57462;BME280;43308;47.306;8.608;2024-02-23T02:27:16;93662.94;;;5.85;68.75
57462;BME280;43308;47.306;8.608;2024-02-23T02:29:42;93655.56;;;5.82;69.15
57462;BME280;43308;47.306;8.608;2024-02-23T02:32:08;93650.88;;;5.79;69.46
57462;BME280;43308;47.306;8.608;2024-02-23T02:34:34;93653.38;;;5.76;69.52
57462;BME280;43308;47.306;8.608;2024-02-23T02:37:00;93671.72;;;5.72;69.51
57462;BME280;43308;47.306;8.608;2024-02-23T02:39:27;93650.84;;;5.71;70.36
57462;BME280;43308;47.306;8.608;2024-02-23T02:41:53;93662.66;;;5.65;70.10
57462;BME280;43308;47.306;8.608;2024-02-23T02:44:18;93673.38;;;5.60;70.65
57462;BME280;43308;47.306;8.608;2024-02-23T02:46:44;93674.16;;;5.60;70.52
57462;BME280;43308;47.306;8.608;2024-02-23T02:49:12;93675.25;;;5.59;70.02
57462;BME280;43308;47.306;8.608;2024-02-23T02:51:37;93665.44;;;5.60;70.22
57462;BME280;43308;47.306;8.608;2024-02-23T02:54:04;93660.16;;;5.60;70.30
57462;BME280;43308;47.306;8.608;2024-02-23T02:56:30;93653.28;;;5.59;70.91
57462;BME280;43308;47.306;8.608;2024-02-23T02:58:56;93636.94;;;5.57;70.90
57462;BME280;43308;47.306;8.608;2024-02-23T03:01:22;93650.31;;;5.52;70.33
57462;BME280;43308;47.306;8.608;2024-02-23T03:03:48;93642.38;;;5.52;70.28
57462;BME280;43308;47.306;8.608;2024-02-23T03:06:15;93652.19;;;5.51;70.41
57462;BME280;43308;47.306;8.608;2024-02-23T03:08:44;93647.34;;;5.53;70.73
57462;BME280;43308;47.306;8.608;2024-02-23T03:11:09;93662.94;;;5.55;70.95
57462;BME280;43308;47.306;8.608;2024-02-23T03:13:35;93660.59;;;5.53;69.99
57462;BME280;43308;47.306;8.608;2024-02-23T03:16:01;93653.44;;;5.54;69.83
57462;BME280;43308;47.306;8.608;2024-02-23T03:18:27;93652.34;;;5.55;70.20
57462;BME280;43308;47.306;8.608;2024-02-23T03:20:53;93652.97;;;5.52;70.28
57462;BME280;43308;47.306;8.608;2024-02-23T03:23:20;93651.56;;;5.54;69.75
57462;BME280;43308;47.306;8.608;2024-02-23T03:25:46;93658.72;;;5.54;69.27
57462;BME280;43308;47.306;8.608;2024-02-23T03:28:12;93660.91;;;5.52;69.37
57462;BME280;43308;47.306;8.608;2024-02-23T03:30:38;93657.66;;;5.55;69.40
57462;BME280;43308;47.306;8.608;2024-02-23T03:33:04;93666.84;;;5.57;69.21
57462;BME280;43308;47.306;8.608;2024-02-23T03:35:30;93668.53;;;5.53;69.22
57462;BME280;43308;47.306;8.608;2024-02-23T03:37:56;93684.72;;;5.52;68.41
57462;BME280;43308;47.306;8.608;2024-02-23T03:40:22;93666.91;;;5.44;68.36
57462;BME280;43308;47.306;8.608;2024-02-23T03:42:48;93658.69;;;5.45;68.48
57462;BME280;43308;47.306;8.608;2024-02-23T03:45:13;93657.91;;;5.45;68.97
57462;BME280;43308;47.306;8.608;2024-02-23T03:47:39;93657.75;;;5.50;68.60
57462;BME280;43308;47.306;8.608;2024-02-23T03:50:06;93646.72;;;5.48;68.80
57462;BME280;43308;47.306;8.608;2024-02-23T03:52:33;93642.81;;;5.45;68.82
57462;BME280;43308;47.306;8.608;2024-02-23T03:54:59;93643.56;;;5.46;68.93
57462;BME280;43308;47.306;8.608;2024-02-23T03:57:24;93636.22;;;5.43;68.76
57462;BME280;43308;47.306;8.608;2024-02-23T03:59:54;93628.91;;;5.40;68.94
57462;BME280;43308;47.306;8.608;2024-02-23T04:02:20;93636.06;;;5.39;69.38
57462;BME280;43308;47.306;8.608;2024-02-23T04:04:47;93638.41;;;5.41;68.55
57462;BME280;43308;47.306;8.608;2024-02-23T04:07:13;93631.56;;;5.40;68.75
57462;BME280;43308;47.306;8.608;2024-02-23T04:09:39;93630.31;;;5.37;68.73
57462;BME280;43308;47.306;8.608;2024-02-23T04:12:05;93632.47;;;5.35;68.59
57462;BME280;43308;47.306;8.608;2024-02-23T04:14:33;93630.13;;;5.33;68.75
57462;BME280;43308;47.306;8.608;2024-02-23T04:17:03;93645.38;;;5.36;67.78
57462;BME280;43308;47.306;8.608;2024-02-23T04:19:29;93656.75;;;5.37;68.60
57462;BME280;43308;47.306;8.608;2024-02-23T04:21:55;93654.44;;;5.35;68.30
57462;BME280;43308;47.306;8.608;2024-02-23T04:24:20;93643.66;;;5.32;67.90
57462;BME280;43308;47.306;8.608;2024-02-23T04:26:46;93644.28;;;5.29;68.29
57462;BME280;43308;47.306;8.608;2024-02-23T04:29:12;93655.16;;;5.27;68.40
57462;BME280;43308;47.306;8.608;2024-02-23T04:31:38;93654.69;;;5.25;69.13
57462;BME280;43308;47.306;8.608;2024-02-23T04:34:04;93659.19;;;5.25;68.58
57462;BME280;43308;47.306;8.608;2024-02-23T04:36:30;93658.22;;;5.21;69.08
57462;BME280;43308;47.306;8.608;2024-02-23T04:38:56;93646.84;;;5.20;69.15
57462;BME280;43308;47.306;8.608;2024-02-23T04:41:22;93649.81;;;5.19;69.06
57462;BME280;43308;47.306;8.608;2024-02-23T04:43:48;93658.03;;;5.17;69.18
57462;BME280;43308;47.306;8.608;2024-02-23T04:46:14;93668.63;;;5.17;68.41
57462;BME280;43308;47.306;8.608;2024-02-23T04:48:39;93661.28;;;5.14;68.89
57462;BME280;43308;47.306;8.608;2024-02-23T04:51:05;93673.44;;;5.15;69.22
57462;BME280;43308;47.306;8.608;2024-02-23T04:53:36;93671.59;;;5.16;69.21
57462;BME280;43308;47.306;8.608;2024-02-23T04:56:03;93660.22;;;5.15;69.54
57462;BME280;43308;47.306;8.608;2024-02-23T04:58:29;93670.00;;;5.15;69.32
57462;BME280;43308;47.306;8.608;2024-02-23T05:00:55;93671.28;;;5.17;69.21
57462;BME280;43308;47.306;8.608;2024-02-23T05:03:21;93664.44;;;5.16;68.34
57462;BME280;43308;47.306;8.608;2024-02-23T05:05:47;93661.78;;;5.16;68.29
57462;BME280;43308;47.306;8.608;2024-02-23T05:08:13;93667.38;;;5.15;68.33
57462;BME280;43308;47.306;8.608;2024-02-23T05:10:39;93675.63;;;5.13;68.79
57462;BME280;43308;47.306;8.608;2024-02-23T05:13:05;93670.00;;;5.15;68.00
57462;BME280;43308;47.306;8.608;2024-02-23T05:15:31;93681.84;;;5.17;68.26
57462;BME280;43308;47.306;8.608;2024-02-23T05:17:57;93686.84;;;5.19;68.55
57462;BME280;43308;47.306;8.608;2024-02-23T05:20:22;93675.94;;;5.20;68.56
57462;BME280;43308;47.306;8.608;2024-02-23T05:22:48;93669.59;;;5.21;68.46
57462;BME280;43308;47.306;8.608;2024-02-23T05:25:14;93675.19;;;5.20;68.54
57462;BME280;43308;47.306;8.608;2024-02-23T05:27:40;93677.06;;;5.19;68.77
57462;BME280;43308;47.306;8.608;2024-02-23T05:30:06;93689.97;;;5.21;68.30
57462;BME280;43308;47.306;8.608;2024-02-23T05:32:32;93686.84;;;5.19;67.66
57462;BME280;43308;47.306;8.608;2024-02-23T05:34:58;93686.38;;;5.17;67.15
57462;BME280;43308;47.306;8.608;2024-02-23T05:37:24;93681.81;;;5.09;67.11
57462;BME280;43308;47.306;8.608;2024-02-23T05:39:50;93677.28;;;5.09;67.58
57462;BME280;43308;47.306;8.608;2024-02-23T05:42:15;93673.41;;;5.07;67.89
57462;BME280;43308;47.306;8.608;2024-02-23T05:44:45;93663.09;;;5.05;67.38
57462;BME280;43308;47.306;8.608;2024-02-23T05:47:11;93654.19;;;5.01;67.81
57462;BME280;43308;47.306;8.608;2024-02-23T05:49:39;93654.19;;;5.01;67.71
57462;BME280;43308;47.306;8.608;2024-02-23T05:52:05;93651.09;;;4.99;67.27
57462;BME280;43308;47.306;8.608;2024-02-23T05:54:32;93652.47;;;4.97;67.32
57462;BME280;43308;47.306;8.608;2024-02-23T05:56:57;93640.84;;;4.98;66.36
57462;BME280;43308;47.306;8.608;2024-02-23T05:59:23;93646.41;;;4.96;66.36
57462;BME280;43308;47.306;8.608;2024-02-23T06:01:49;93638.00;;;4.94;66.91
57462;BME280;43308;47.306;8.608;2024-02-23T06:04:15;93637.81;;;4.91;67.32
57462;BME280;43308;47.306;8.608;2024-02-23T06:06:41;93640.75;;;4.89;66.64
57462;BME280;43308;47.306;8.608;2024-02-23T06:09:08;93638.41;;;4.88;65.95
57462;BME280;43308;47.306;8.608;2024-02-23T06:11:34;93639.81;;;4.85;65.31
57462;BME280;43308;47.306;8.608;2024-02-23T06:14:00;93631.69;;;4.81;64.70
57462;BME280;43308;47.306;8.608;2024-02-23T06:16:25;93641.16;;;4.82;65.37
57462;BME280;43308;47.306;8.608;2024-02-23T06:18:51;93640.38;;;4.82;65.04
57462;BME280;43308;47.306;8.608;2024-02-23T06:21:17;93634.34;;;4.81;64.51
57462;BME280;43308;47.306;8.608;2024-02-23T06:23:44;93634.34;;;4.81;65.42
57462;BME280;43308;47.306;8.608;2024-02-23T06:26:10;93622.19;;;4.80;65.62
57462;BME280;43308;47.306;8.608;2024-02-23T06:28:37;93625.63;;;4.81;65.65
57462;BME280;43308;47.306;8.608;2024-02-23T06:31:05;93645.50;;;4.78;65.93
57462;BME280;43308;47.306;8.608;2024-02-23T06:33:31;93666.94;;;4.77;66.17
57462;BME280;43308;47.306;8.608;2024-02-23T06:35:57;93657.44;;;4.76;66.63
57462;BME280;43308;47.306;8.608;2024-02-23T06:38:23;93655.31;;;4.78;66.69
57462;BME280;43308;47.306;8.608;2024-02-23T06:40:49;93657.94;;;4.78;66.57
57462;BME280;43308;47.306;8.608;2024-02-23T06:43:15;93678.31;;;4.77;67.38
57462;BME280;43308;47.306;8.608;2024-02-23T06:45:41;93673.31;;;4.76;67.42
57462;BME280;43308;47.306;8.608;2024-02-23T06:48:07;93663.53;;;4.76;68.68
57462;BME280;43308;47.306;8.608;2024-02-23T06:50:33;93656.97;;;4.74;68.67
57462;BME280;43308;47.306;8.608;2024-02-23T06:52:59;93660.22;;;4.71;68.69
57462;BME280;43308;47.306;8.608;2024-02-23T06:55:25;93657.09;;;4.69;69.78
57462;BME280;43308;47.306;8.608;2024-02-23T06:57:51;93671.06;;;4.69;70.54
57462;BME280;43308;47.306;8.608;2024-02-23T07:00:17;93674.81;;;4.68;70.52
57462;BME280;43308;47.306;8.608;2024-02-23T07:02:43;93684.28;;;4.69;70.83
57462;BME280;43308;47.306;8.608;2024-02-23T07:05:09;93691.47;;;4.69;69.68
57462;BME280;43308;47.306;8.608;2024-02-23T07:07:35;93680.56;;;4.70;70.03
57462;BME280;43308;47.306;8.608;2024-02-23T07:10:01;93687.44;;;4.71;70.81
57462;BME280;43308;47.306;8.608;2024-02-23T07:12:27;93691.81;;;4.76;70.62
57462;BME280;43308;47.306;8.608;2024-02-23T07:14:57;93699.47;;;4.77;70.84
57462;BME280;43308;47.306;8.608;2024-02-23T07:17:23;93704.94;;;4.81;70.78
57462;BME280;43308;47.306;8.608;2024-02-23T07:19:49;93699.34;;;4.82;69.90
57462;BME280;43308;47.306;8.608;2024-02-23T07:22:16;93697.47;;;4.83;64.12
57462;BME280;43308;47.306;8.608;2024-02-23T07:24:44;93696.59;;;4.88;62.08
57462;BME280;43308;47.306;8.608;2024-02-23T07:27:10;93694.13;;;4.91;63.03
57462;BME280;43308;47.306;8.608;2024-02-23T07:29:36;93714.19;;;4.92;63.13
57462;BME280;43308;47.306;8.608;2024-02-23T07:32:03;93710.28;;;4.90;63.08
57462;BME280;43308;47.306;8.608;2024-02-23T07:34:30;93703.13;;;4.90;62.62
57462;BME280;43308;47.306;8.608;2024-02-23T07:36:57;93709.69;;;4.93;61.96
57462;BME280;43308;47.306;8.608;2024-02-23T07:39:22;93711.84;;;4.91;61.03
57462;BME280;43308;47.306;8.608;2024-02-23T07:41:48;93707.16;;;4.88;60.67
57462;BME280;43308;47.306;8.608;2024-02-23T07:44:14;93714.78;;;4.89;60.64
57462;BME280;43308;47.306;8.608;2024-02-23T07:46:40;93702.94;;;4.87;61.34
57462;BME280;43308;47.306;8.608;2024-02-23T07:49:09;93706.84;;;4.89;61.05
57462;BME280;43308;47.306;8.608;2024-02-23T07:51:36;93722.13;;;4.92;60.31
57462;BME280;43308;47.306;8.608;2024-02-23T07:54:03;93715.28;;;4.91;61.52
57462;BME280;43308;47.306;8.608;2024-02-23T07:56:28;93717.16;;;4.91;59.54
57462;BME280;43308;47.306;8.608;2024-02-23T07:58:55;93717.63;;;4.93;58.11
57462;BME280;43308;47.306;8.608;2024-02-23T08:01:21;93714.38;;;4.96;58.30
57462;BME280;43308;47.306;8.608;2024-02-23T08:03:47;93715.94;;;4.97;58.67
57462;BME280;43308;47.306;8.608;2024-02-23T08:06:13;93722.34;;;5.04;58.29
57462;BME280;43308;47.306;8.608;2024-02-23T08:08:38;93710.72;;;5.05;58.49
57462;BME280;43308;47.306;8.608;2024-02-23T08:11:05;93703.44;;;5.11;58.11
57462;BME280;43308;47.306;8.608;2024-02-23T08:13:31;93699.44;;;5.13;59.15
57462;BME280;43308;47.306;8.608;2024-02-23T08:15:57;93709.41;;;5.16;59.58
57462;BME280;43308;47.306;8.608;2024-02-23T08:18:23;93706.44;;;5.18;57.66
57462;BME280;43308;47.306;8.608;2024-02-23T08:20:49;93692.16;;;5.19;58.01
57462;BME280;43308;47.306;8.608;2024-02-23T08:23:15;93683.88;;;5.20;57.24
57462;BME280;43308;47.306;8.608;2024-02-23T08:25:41;93693.13;;;5.23;58.09
57462;BME280;43308;47.306;8.608;2024-02-23T08:28:06;93700.44;;;5.26;56.97
57462;BME280;43308;47.306;8.608;2024-02-23T08:30:33;93696.41;;;5.28;55.82
57462;BME280;43308;47.306;8.608;2024-02-23T08:32:59;93694.84;;;5.27;55.47
57462;BME280;43308;47.306;8.608;2024-02-23T08:35:25;93695.00;;;5.31;54.41
57462;BME280;43308;47.306;8.608;2024-02-23T08:37:51;93694.13;;;5.35;53.96
57462;BME280;43308;47.306;8.608;2024-02-23T08:40:17;93693.03;;;5.36;54.83
57462;BME280;43308;47.306;8.608;2024-02-23T08:42:43;93692.41;;;5.40;55.53
57462;BME280;43308;47.306;8.608;2024-02-23T08:45:09;93682.78;;;5.44;55.99
57462;BME280;43308;47.306;8.608;2024-02-23T08:47:41;93682.78;;;5.44;54.38
57462;BME280;43308;47.306;8.608;2024-02-23T08:50:07;93683.75;;;5.48;54.54
57462;BME280;43308;47.306;8.608;2024-02-23T08:52:33;93695.47;;;5.55;54.31
57462;BME280;43308;47.306;8.608;2024-02-23T08:54:59;93682.41;;;5.59;53.99
57462;BME280;43308;47.306;8.608;2024-02-23T08:57:27;93679.47;;;5.60;54.43
57462;BME280;43308;47.306;8.608;2024-02-23T08:59:53;93672.00;;;5.62;52.33
57462;BME280;43308;47.306;8.608;2024-02-23T09:02:19;93675.59;;;5.66;52.77
57462;BME280;43308;47.306;8.608;2024-02-23T09:04:45;93685.88;;;5.68;53.58
57462;BME280;43308;47.306;8.608;2024-02-23T09:07:12;93694.75;;;5.72;52.04
57462;BME280;43308;47.306;8.608;2024-02-23T09:09:38;93683.56;;;5.75;52.07
57462;BME280;43308;47.306;8.608;2024-02-23T09:12:04;93686.84;;;5.80;51.84
57462;BME280;43308;47.306;8.608;2024-02-23T09:14:32;93674.09;;;5.82;51.92
57462;BME280;43308;47.306;8.608;2024-02-23T09:16:58;93670.22;;;5.80;52.86
57462;BME280;43308;47.306;8.608;2024-02-23T09:19:24;93675.97;;;5.82;52.99
57462;BME280;43308;47.306;8.608;2024-02-23T09:21:50;93681.28;;;5.82;53.25
57462;BME280;43308;47.306;8.608;2024-02-23T09:24:17;93680.19;;;5.83;53.89
57462;BME280;43308;47.306;8.608;2024-02-23T09:26:46;93692.53;;;5.87;54.41
57462;BME280;43308;47.306;8.608;2024-02-23T09:29:13;93685.22;;;5.93;53.71
57462;BME280;43308;47.306;8.608;2024-02-23T09:31:39;93683.06;;;5.95;53.00
57462;BME280;43308;47.306;8.608;2024-02-23T09:34:07;93670.72;;;5.91;53.43
57462;BME280;43308;47.306;8.608;2024-02-23T09:36:33;93670.34;;;5.83;54.11
57462;BME280;43308;47.306;8.608;2024-02-23T09:38:59;93674.31;;;5.86;54.16
57462;BME280;43308;47.306;8.608;2024-02-23T09:41:28;93671.84;;;5.90;54.13
57462;BME280;43308;47.306;8.608;2024-02-23T09:43:55;93666.53;;;5.90;54.06
57462;BME280;43308;47.306;8.608;2024-02-23T09:46:25;93661.06;;;5.86;53.89
57462;BME280;43308;47.306;8.608;2024-02-23T09:48:51;93661.94;;;5.81;54.41
57462;BME280;43308;47.306;8.608;2024-02-23T09:51:18;93666.16;;;5.82;54.29
57462;BME280;43308;47.306;8.608;2024-02-23T09:53:44;93662.72;;;5.82;54.43
57462;BME280;43308;47.306;8.608;2024-02-23T09:56:10;93661.47;;;5.79;54.71
57462;BME280;43308;47.306;8.608;2024-02-23T09:58:37;93649.50;;;5.82;54.42
57462;BME280;43308;47.306;8.608;2024-02-23T10:01:03;93662.88;;;5.77;54.59
57462;BME280;43308;47.306;8.608;2024-02-23T10:03:30;93659.75;;;5.75;55.07
57462;BME280;43308;47.306;8.608;2024-02-23T10:05:57;93647.59;;;5.74;54.54
57462;BME280;43308;47.306;8.608;2024-02-23T10:08:22;93646.31;;;5.71;55.41
57462;BME280;43308;47.306;8.608;2024-02-23T10:10:48;93650.53;;;5.72;55.63
57462;BME280;43308;47.306;8.608;2024-02-23T10:13:19;93659.44;;;5.76;55.23
57462;BME280;43308;47.306;8.608;2024-02-23T10:15:53;93659.13;;;5.78;55.38
57462;BME280;43308;47.306;8.608;2024-02-23T10:18:19;93651.00;;;5.74;55.23
57462;BME280;43308;47.306;8.608;2024-02-23T10:20:46;93650.25;;;5.74;54.91
57462;BME280;43308;47.306;8.608;2024-02-23T10:23:13;93656.47;;;5.78;55.20
57462;BME280;43308;47.306;8.608;2024-02-23T10:25:39;93645.59;;;5.79;56.62
57462;BME280;43308;47.306;8.608;2024-02-23T10:28:06;93643.41;;;5.81;55.50
57462;BME280;43308;47.306;8.608;2024-02-23T10:30:32;93645.28;;;5.81;55.57
57462;BME280;43308;47.306;8.608;2024-02-23T10:32:59;93645.75;;;5.83;56.05
57462;BME280;43308;47.306;8.608;2024-02-23T10:35:25;93651.13;;;5.92;55.74
57462;BME280;43308;47.306;8.608;2024-02-23T10:37:52;93653.59;;;5.97;55.54
57462;BME280;43308;47.306;8.608;2024-02-23T10:40:20;93659.06;;;6.00;55.63
57462;BME280;43308;47.306;8.608;2024-02-23T10:42:48;93655.69;;;6.08;55.96
57462;BME280;43308;47.306;8.608;2024-02-23T10:45:20;93664.91;;;6.19;55.63
57462;BME280;43308;47.306;8.608;2024-02-23T10:47:48;93661.78;;;6.26;55.99
57462;BME280;43308;47.306;8.608;2024-02-23T10:50:17;93660.25;;;6.33;55.80
57462;BME280;43308;47.306;8.608;2024-02-23T10:52:45;93646.72;;;6.44;55.90
57462;BME280;43308;47.306;8.608;2024-02-23T10:55:15;93642.66;;;6.55;55.61
57462;BME280;43308;47.306;8.608;2024-02-23T10:57:40;93646.41;;;6.62;55.73
57462;BME280;43308;47.306;8.608;2024-02-23T11:00:08;93643.75;;;6.71;54.85
57462;BME280;43308;47.306;8.608;2024-02-23T11:02:46;93647.66;;;6.73;54.44
57462;BME280;43308;47.306;8.608;2024-02-23T11:05:14;93645.16;;;6.77;54.14
57462;BME280;43308;47.306;8.608;2024-02-23T11:07:40;93653.09;;;6.85;54.16
57462;BME280;43308;47.306;8.608;2024-02-23T11:10:06;93641.88;;;6.88;54.23
57462;BME280;43308;47.306;8.608;2024-02-23T11:12:35;93647.19;;;6.97;54.74
57462;BME280;43308;47.306;8.608;2024-02-23T11:15:02;93642.66;;;7.06;54.46
57462;BME280;43308;47.306;8.608;2024-02-23T11:17:35;93642.47;;;7.11;54.28
57462;BME280;43308;47.306;8.608;2024-02-23T11:20:03;93648.41;;;7.17;53.85
57462;BME280;43308;47.306;8.608;2024-02-23T11:22:31;93641.06;;;7.14;54.21
57462;BME280;43308;47.306;8.608;2024-02-23T11:25:05;93635.31;;;7.12;55.14
57462;BME280;43308;47.306;8.608;2024-02-23T11:27:33;93635.75;;;7.14;55.20
57462;BME280;43308;47.306;8.608;2024-02-23T11:30:02;93633.25;;;7.17;54.93
57462;BME280;43308;47.306;8.608;2024-02-23T11:32:37;93624.47;;;7.34;55.71
57462;BME280;43308;47.306;8.608;2024-02-23T11:35:06;93616.75;;;7.58;54.33
57462;BME280;43308;47.306;8.608;2024-02-23T11:37:32;93617.94;;;7.78;54.62
57462;BME280;43308;47.306;8.608;2024-02-23T11:40:01;93619.72;;;7.94;53.73
57462;BME280;43308;47.306;8.608;2024-02-23T11:42:27;93624.22;;;8.02;53.19
57462;BME280;43308;47.306;8.608;2024-02-23T11:44:54;93629.34;;;8.08;52.47
57462;BME280;43308;47.306;8.608;2024-02-23T11:47:20;93626.19;;;8.14;51.41
57462;BME280;43308;47.306;8.608;2024-02-23T11:49:45;93619.91;;;8.19;51.22
57462;BME280;43308;47.306;8.608;2024-02-23T11:52:11;93608.16;;;8.28;50.83
57462;BME280;43308;47.306;8.608;2024-02-23T11:54:37;93612.66;;;8.36;50.32
57462;BME280;43308;47.306;8.608;2024-02-23T11:57:03;93617.47;;;8.43;51.12
57462;BME280;43308;47.306;8.608;2024-02-23T11:59:32;93611.41;;;8.54;51.12
57462;BME280;43308;47.306;8.608;2024-02-23T12:01:57;93612.25;;;8.67;50.23
57462;BME280;43308;47.306;8.608;2024-02-23T12:04:26;93610.66;;;8.75;51.30
57462;BME280;43308;47.306;8.608;2024-02-23T12:06:53;93608.94;;;8.91;51.57
57462;BME280;43308;47.306;8.608;2024-02-23T12:09:19;93594.28;;;9.18;51.77
57462;BME280;43308;47.306;8.608;2024-02-23T12:11:45;93589.59;;;9.47;50.90
57462;BME280;43308;47.306;8.608;2024-02-23T12:14:11;93582.53;;;9.88;49.16
57462;BME280;43308;47.306;8.608;2024-02-23T12:16:39;93591.41;;;10.04;48.57
57462;BME280;43308;47.306;8.608;2024-02-23T12:19:08;93592.28;;;9.96;46.69
57462;BME280;43308;47.306;8.608;2024-02-23T12:21:36;93591.97;;;9.85;46.51
57462;BME280;43308;47.306;8.608;2024-02-23T12:24:05;93599.84;;;9.82;47.40
57462;BME280;43308;47.306;8.608;2024-02-23T12:26:35;93602.06;;;9.80;47.63
57462;BME280;43308;47.306;8.608;2024-02-23T12:29:02;93591.50;;;9.71;47.41
57462;BME280;43308;47.306;8.608;2024-02-23T12:31:28;93582.50;;;9.64;48.50
57462;BME280;43308;47.306;8.608;2024-02-23T12:33:56;93582.03;;;9.61;48.23
57462;BME280;43308;47.306;8.608;2024-02-23T12:36:23;93589.16;;;9.57;48.00
57462;BME280;43308;47.306;8.608;2024-02-23T12:38:49;93582.81;;;9.50;48.85
57462;BME280;43308;47.306;8.608;2024-02-23T12:41:14;93586.81;;;9.44;48.86
57462;BME280;43308;47.306;8.608;2024-02-23T12:43:40;93582.69;;;9.34;48.94
57462;BME280;43308;47.306;8.608;2024-02-23T12:46:06;93575.66;;;9.18;49.67
57462;BME280;43308;47.306;8.608;2024-02-23T12:48:35;93582.50;;;9.06;50.61
57462;BME280;43308;47.306;8.608;2024-02-23T12:51:01;93575.22;;;8.95;51.23
57462;BME280;43308;47.306;8.608;2024-02-23T12:56:01;93563.78;;;8.82;52.38
57462;BME280;43308;47.306;8.608;2024-02-23T12:58:27;93558.31;;;8.79;53.20
57462;BME280;43308;47.306;8.608;2024-02-23T13:00:53;93561.31;;;8.77;53.48
57462;BME280;43308;47.306;8.608;2024-02-23T13:03:20;93562.41;;;8.76;52.79
57462;BME280;43308;47.306;8.608;2024-02-23T13:05:46;93553.53;;;8.72;52.69
57462;BME280;43308;47.306;8.608;2024-02-23T13:08:13;93546.44;;;8.76;52.30